x

Folly Island, Sc (fbis1) Weather Station

12:00am - Sun 24th Jul 2016 All times are EDT. -4 hours from GMT.

  • Wind
    15mph, 17mph gusts
  • Air Temp 85°f
  • Sea Pressure 1016.6mb
  • Folly Island, Sc
  • Folly Island, Sc

More Historic Weather Station data

Upgrade to MSW Pro to gain access to the past 30 days of data for over 8000 Wavebouys and Weather Stations around the globe.

Join Pro

Comparision Forecast

View Surf forecast
   
Sun 07/24 12:00am 15 17 mph 1016.6mb 85f
Sat 07/23 11:00pm 14 16 mph 1016.5mb 85f
10:00pm 15 17 mph 1016.2mb 85f
9:00pm 13 15 mph 1015.6mb 85f
8:00pm 14 15 mph 1015.1mb 85f
7:00pm 14 16 mph 1015.4mb 86f
6:00pm 14 16 mph 1015.3mb 86f
5:00pm 15 16 mph 1015.6mb 86f
4:00pm 14 15 mph 1016mb 86f
3:00pm 13 15 mph 1016.3mb 86f
2:00pm 13 14 mph 1016.7mb 86f
1:00pm 11 13 mph 1017.1mb 86f
12:00pm 8 9 mph 1017.4mb 85f
11:00am 6 8 mph 1017.5mb 86f
10:00am 7 8 mph 1017mb 85f
9:00am 5 9 mph 1016.7mb 84f
8:00am 3 6 mph 1016.5mb 81f
7:00am 3 5 mph 1016.4mb 79f
6:00am 1 2 mph 1016.6mb 80f
5:00am 2 3 mph 1016.1mb 81f
4:00am 7 8 mph 1016.1mb 82f
3:00am 16 17 mph 1016.5mb 84f
2:00am 13 14 mph 1016.8mb 84f
1:00am 11 14 mph 1017.3mb 85f
12:00am 14 16 mph 1017.4mb 85f
Fri 07/22 11:00pm 14 15 mph 1017.6mb 85f
10:00pm 10 11 mph 1017.6mb 85f
9:00pm 8 9 mph 1017.2mb 85f
8:00pm 8 9 mph 1016.8mb 85f
7:00pm 9 10 mph 1016.5mb 85f
6:00pm 8 9 mph 1016.7mb 85f
5:00pm 7 8 mph 1017.6mb 86f
4:00pm 7 8 mph 1018.6mb 86f
3:00pm 9 10 mph 1019.3mb 86f
2:00pm 8 9 mph 1019.9mb 85f
1:00pm 7 8 mph 1020.3mb 85f
12:00pm 8 9 mph 1020.1mb 84f
11:00am 6 7 mph 1020mb 83f
10:00am 2 3 mph 1019.7mb 83f
9:00am 2 3 mph 1019.7mb 83f
8:00am 1 2 mph 1019.6mb 80f
7:00am 2 3 mph 1019.5mb 79f
6:00am 3
mph
1019mb 78f
5:00am 1 2 mph 1019.1mb 78f
4:00am 5
mph
1019mb 79f
3:00am 2 3 mph 1019.3mb 82f
2:00am 3 5 mph 1019.8mb 82f
1:00am 3 5 mph 1020mb 82f
12:00am 5 6 mph 1020.4mb 82f
Thu 07/21 11:00pm 2
mph
1021.1mb 82f
10:00pm 3 5 mph 1020.7mb 83f
9:00pm 6 7 mph 1019.6mb 83f
8:00pm 5 6 mph 1019.3mb 83f
7:00pm 6
mph
1019.1mb 83f
6:00pm 2
mph
1019.1mb 83f
5:00pm 2
mph
1019.8mb 82f
4:00pm 3 5 mph 1020.5mb 80f
3:00pm 8 9 mph 1021.3mb 84f
2:00pm 7 8 mph 1021.1mb 84f
1:00pm 7 8 mph 1021.6mb 84f
12:00pm 5 7 mph 1022.1mb 85f
11:00am 6 8 mph 1021.8mb 85f
10:00am 7
mph
1021.3mb 85f
9:00am 3 5 mph 1021.4mb 83f
8:00am 5 6 mph 1021.3mb 83f
7:00am 5 6 mph 1020.6mb 80f
6:00am 3 5 mph 1019.9mb 79f
5:00am 2 3 mph 1019.8mb 81f
4:00am 2 3 mph 1019.9mb 80f
3:00am 3
mph
1020.1mb 81f
2:00am 2
mph
1020.5mb 82f
1:00am  -  mph 1020.8mb 82f
12:00am 2
mph
1021.2mb 83f
Wed 07/20 11:00pm 3
mph
1021.3mb 83f
10:00pm 3 5 mph 1020.6mb 83f
9:00pm 7 8 mph 1019.6mb 83f
8:00pm 5 6 mph 1019.5mb 84f
7:00pm 7 8 mph 1020mb 85f
6:00pm 9 11 mph 1019.8mb 85f
5:00pm 8 9 mph 1020mb 86f
4:00pm 8 9 mph 1020.1mb 85f
3:00pm 10 11 mph 1020.7mb 86f
2:00pm 10 11 mph 1021.2mb 86f
1:00pm 10 11 mph 1021.4mb 85f
12:00pm 8 9 mph 1021.4mb 85f
11:00am 6 10 mph 1021.7mb 86f
10:00am 8 10 mph 1021.6mb 82f
9:00am 2 5 mph 1021.4mb 80f
8:00am 3 6 mph 1020.4mb 77f
7:00am 3 6 mph 1020.8mb 76f
6:00am 8 10 mph 1020.8mb 78f